sensor_id;sensor_type;location;lat;lon;timestamp;P1;durP1;ratioP1;P2;durP2;ratioP2
6205;SDS011;3136;48.788;9.772;2023-07-13T00:00:18;2.57;;;1.90;;
6205;SDS011;3136;48.788;9.772;2023-07-13T00:02:44;3.00;;;1.80;;
6205;SDS011;3136;48.788;9.772;2023-07-13T00:05:10;2.83;;;1.83;;
6205;SDS011;3136;48.788;9.772;2023-07-13T00:07:36;2.57;;;1.70;;
6205;SDS011;3136;48.788;9.772;2023-07-13T00:10:02;1.90;;;1.60;;
6205;SDS011;3136;48.788;9.772;2023-07-13T00:12:30;2.40;;;1.80;;
6205;SDS011;3136;48.788;9.772;2023-07-13T00:14:57;2.17;;;1.77;;
6205;SDS011;3136;48.788;9.772;2023-07-13T00:17:25;2.57;;;1.90;;
6205;SDS011;3136;48.788;9.772;2023-07-13T00:19:52;3.03;;;1.80;;
6205;SDS011;3136;48.788;9.772;2023-07-13T00:22:18;3.70;;;1.77;;
6205;SDS011;3136;48.788;9.772;2023-07-13T00:24:44;3.00;;;1.60;;
6205;SDS011;3136;48.788;9.772;2023-07-13T00:27:10;2.23;;;1.70;;
6205;SDS011;3136;48.788;9.772;2023-07-13T00:29:36;2.77;;;1.80;;
6205;SDS011;3136;48.788;9.772;2023-07-13T00:32:03;2.57;;;1.60;;
6205;SDS011;3136;48.788;9.772;2023-07-13T00:34:29;2.70;;;1.60;;
6205;SDS011;3136;48.788;9.772;2023-07-13T00:36:55;3.23;;;1.80;;
6205;SDS011;3136;48.788;9.772;2023-07-13T00:39:21;1.93;;;1.60;;
6205;SDS011;3136;48.788;9.772;2023-07-13T00:41:47;6.70;;;2.37;;
6205;SDS011;3136;48.788;9.772;2023-07-13T00:44:13;2.47;;;1.80;;
6205;SDS011;3136;48.788;9.772;2023-07-13T00:46:40;2.10;;;1.70;;
6205;SDS011;3136;48.788;9.772;2023-07-13T00:49:06;3.37;;;1.80;;
6205;SDS011;3136;48.788;9.772;2023-07-13T00:54:07;4.03;;;2.00;;
6205;SDS011;3136;48.788;9.772;2023-07-13T00:56:38;3.57;;;1.60;;
6205;SDS011;3136;48.788;9.772;2023-07-13T00:59:06;4.23;;;1.70;;
6205;SDS011;3136;48.788;9.772;2023-07-13T01:01:33;3.43;;;1.50;;
6205;SDS011;3136;48.788;9.772;2023-07-13T01:03:59;5.00;;;1.90;;
6205;SDS011;3136;48.788;9.772;2023-07-13T01:06:24;3.70;;;1.90;;
6205;SDS011;3136;48.788;9.772;2023-07-13T01:08:50;3.80;;;1.80;;
6205;SDS011;3136;48.788;9.772;2023-07-13T01:11:19;5.73;;;1.90;;
6205;SDS011;3136;48.788;9.772;2023-07-13T01:13:47;4.23;;;1.97;;
6205;SDS011;3136;48.788;9.772;2023-07-13T01:16:15;4.57;;;1.77;;
6205;SDS011;3136;48.788;9.772;2023-07-13T01:18:47;2.40;;;1.70;;
6205;SDS011;3136;48.788;9.772;2023-07-13T01:21:12;3.17;;;1.60;;
6205;SDS011;3136;48.788;9.772;2023-07-13T01:23:38;5.50;;;1.80;;
6205;SDS011;3136;48.788;9.772;2023-07-13T01:26:03;2.93;;;1.50;;
6205;SDS011;3136;48.788;9.772;2023-07-13T01:28:29;4.63;;;1.80;;
6205;SDS011;3136;48.788;9.772;2023-07-13T01:30:56;2.47;;;1.73;;
6205;SDS011;3136;48.788;9.772;2023-07-13T01:33:23;2.80;;;1.83;;
6205;SDS011;3136;48.788;9.772;2023-07-13T01:35:49;5.00;;;1.83;;
6205;SDS011;3136;48.788;9.772;2023-07-13T01:38:16;3.13;;;1.90;;
6205;SDS011;3136;48.788;9.772;2023-07-13T01:40:42;2.33;;;1.80;;
6205;SDS011;3136;48.788;9.772;2023-07-13T01:43:08;4.17;;;2.03;;
6205;SDS011;3136;48.788;9.772;2023-07-13T01:45:34;2.10;;;1.80;;
6205;SDS011;3136;48.788;9.772;2023-07-13T01:48:00;3.03;;;2.00;;
6205;SDS011;3136;48.788;9.772;2023-07-13T01:50:26;4.37;;;2.03;;
6205;SDS011;3136;48.788;9.772;2023-07-13T01:52:52;2.03;;;1.50;;
6205;SDS011;3136;48.788;9.772;2023-07-13T01:55:19;2.70;;;1.70;;
6205;SDS011;3136;48.788;9.772;2023-07-13T01:57:45;2.23;;;1.80;;
6205;SDS011;3136;48.788;9.772;2023-07-13T02:00:12;2.53;;;1.83;;
6205;SDS011;3136;48.788;9.772;2023-07-13T02:02:38;2.67;;;2.10;;
6205;SDS011;3136;48.788;9.772;2023-07-13T02:05:04;4.97;;;2.20;;
6205;SDS011;3136;48.788;9.772;2023-07-13T02:07:30;4.03;;;2.30;;
6205;SDS011;3136;48.788;9.772;2023-07-13T02:09:56;2.70;;;1.93;;
6205;SDS011;3136;48.788;9.772;2023-07-13T02:12:21;4.73;;;2.20;;
6205;SDS011;3136;48.788;9.772;2023-07-13T02:14:47;3.77;;;1.90;;
6205;SDS011;3136;48.788;9.772;2023-07-13T02:17:13;3.23;;;2.00;;
6205;SDS011;3136;48.788;9.772;2023-07-13T02:19:38;2.27;;;1.83;;
6205;SDS011;3136;48.788;9.772;2023-07-13T02:22:04;4.00;;;1.97;;
6205;SDS011;3136;48.788;9.772;2023-07-13T02:24:30;5.90;;;1.93;;
6205;SDS011;3136;48.788;9.772;2023-07-13T02:26:55;4.77;;;2.20;;
6205;SDS011;3136;48.788;9.772;2023-07-13T02:29:21;2.70;;;1.80;;
6205;SDS011;3136;48.788;9.772;2023-07-13T02:31:46;4.63;;;1.90;;
6205;SDS011;3136;48.788;9.772;2023-07-13T02:34:12;2.63;;;1.97;;
6205;SDS011;3136;48.788;9.772;2023-07-13T02:36:37;4.03;;;2.00;;
6205;SDS011;3136;48.788;9.772;2023-07-13T02:39:04;2.93;;;1.80;;
6205;SDS011;3136;48.788;9.772;2023-07-13T02:41:30;5.27;;;1.93;;
6205;SDS011;3136;48.788;9.772;2023-07-13T02:43:57;4.70;;;1.90;;
6205;SDS011;3136;48.788;9.772;2023-07-13T02:46:32;2.30;;;2.10;;
6205;SDS011;3136;48.788;9.772;2023-07-13T02:48:59;4.00;;;2.10;;
6205;SDS011;3136;48.788;9.772;2023-07-13T02:51:24;4.90;;;2.00;;
6205;SDS011;3136;48.788;9.772;2023-07-13T02:53:50;5.40;;;2.00;;
6205;SDS011;3136;48.788;9.772;2023-07-13T02:56:16;3.30;;;1.80;;
6205;SDS011;3136;48.788;9.772;2023-07-13T02:58:41;2.27;;;1.97;;
6205;SDS011;3136;48.788;9.772;2023-07-13T03:01:08;6.27;;;1.97;;
6205;SDS011;3136;48.788;9.772;2023-07-13T03:03:35;2.63;;;1.90;;
6205;SDS011;3136;48.788;9.772;2023-07-13T03:06:02;3.73;;;2.00;;
6205;SDS011;3136;48.788;9.772;2023-07-13T03:08:30;4.63;;;1.90;;
6205;SDS011;3136;48.788;9.772;2023-07-13T03:10:59;5.07;;;2.17;;
6205;SDS011;3136;48.788;9.772;2023-07-13T03:13:26;3.40;;;1.90;;
6205;SDS011;3136;48.788;9.772;2023-07-13T03:15:51;2.37;;;1.80;;
6205;SDS011;3136;48.788;9.772;2023-07-13T03:18:17;4.53;;;2.93;;
6205;SDS011;3136;48.788;9.772;2023-07-13T03:20:42;3.43;;;1.90;;
6205;SDS011;3136;48.788;9.772;2023-07-13T03:23:08;4.03;;;2.10;;
6205;SDS011;3136;48.788;9.772;2023-07-13T03:25:34;4.27;;;1.80;;
6205;SDS011;3136;48.788;9.772;2023-07-13T03:28:00;6.03;;;2.23;;
6205;SDS011;3136;48.788;9.772;2023-07-13T03:30:25;5.60;;;2.10;;
6205;SDS011;3136;48.788;9.772;2023-07-13T03:32:51;3.87;;;1.80;;
6205;SDS011;3136;48.788;9.772;2023-07-13T03:35:16;2.73;;;1.90;;
6205;SDS011;3136;48.788;9.772;2023-07-13T03:37:42;3.33;;;1.90;;
6205;SDS011;3136;48.788;9.772;2023-07-13T03:40:08;4.27;;;2.20;;
6205;SDS011;3136;48.788;9.772;2023-07-13T03:42:34;5.17;;;2.00;;
6205;SDS011;3136;48.788;9.772;2023-07-13T03:45:00;4.43;;;1.90;;
6205;SDS011;3136;48.788;9.772;2023-07-13T03:47:25;4.03;;;1.90;;
6205;SDS011;3136;48.788;9.772;2023-07-13T03:49:51;4.60;;;1.73;;
6205;SDS011;3136;48.788;9.772;2023-07-13T03:52:16;4.90;;;2.30;;
6205;SDS011;3136;48.788;9.772;2023-07-13T03:54:42;5.33;;;1.90;;
6205;SDS011;3136;48.788;9.772;2023-07-13T03:57:08;3.00;;;1.87;;
6205;SDS011;3136;48.788;9.772;2023-07-13T03:59:33;4.87;;;2.00;;
6205;SDS011;3136;48.788;9.772;2023-07-13T04:02:00;2.83;;;1.70;;
6205;SDS011;3136;48.788;9.772;2023-07-13T04:04:26;8.30;;;2.00;;
6205;SDS011;3136;48.788;9.772;2023-07-13T04:06:51;2.87;;;1.90;;
6205;SDS011;3136;48.788;9.772;2023-07-13T04:09:18;2.80;;;1.90;;
6205;SDS011;3136;48.788;9.772;2023-07-13T04:11:44;4.30;;;2.10;;
6205;SDS011;3136;48.788;9.772;2023-07-13T04:14:09;5.13;;;2.20;;
6205;SDS011;3136;48.788;9.772;2023-07-13T04:16:35;4.83;;;2.00;;
6205;SDS011;3136;48.788;9.772;2023-07-13T04:19:01;5.93;;;2.37;;
6205;SDS011;3136;48.788;9.772;2023-07-13T04:21:27;4.90;;;2.17;;
6205;SDS011;3136;48.788;9.772;2023-07-13T04:23:54;6.57;;;2.00;;
6205;SDS011;3136;48.788;9.772;2023-07-13T04:26:20;5.93;;;2.10;;
6205;SDS011;3136;48.788;9.772;2023-07-13T04:28:47;3.30;;;2.07;;
6205;SDS011;3136;48.788;9.772;2023-07-13T04:31:13;5.47;;;2.47;;
6205;SDS011;3136;48.788;9.772;2023-07-13T04:33:39;2.77;;;1.60;;
6205;SDS011;3136;48.788;9.772;2023-07-13T04:36:05;2.77;;;1.93;;
6205;SDS011;3136;48.788;9.772;2023-07-13T04:38:34;5.23;;;1.93;;
6205;SDS011;3136;48.788;9.772;2023-07-13T04:41:02;5.00;;;2.00;;
6205;SDS011;3136;48.788;9.772;2023-07-13T04:43:29;4.63;;;1.93;;
6205;SDS011;3136;48.788;9.772;2023-07-13T04:45:56;5.60;;;2.00;;
6205;SDS011;3136;48.788;9.772;2023-07-13T04:48:22;3.00;;;2.07;;
6205;SDS011;3136;48.788;9.772;2023-07-13T04:50:54;3.27;;;2.13;;
6205;SDS011;3136;48.788;9.772;2023-07-13T04:53:21;4.23;;;2.00;;
6205;SDS011;3136;48.788;9.772;2023-07-13T04:55:46;4.83;;;2.20;;
6205;SDS011;3136;48.788;9.772;2023-07-13T04:58:12;2.83;;;1.87;;
6205;SDS011;3136;48.788;9.772;2023-07-13T05:00:38;2.83;;;1.80;;
6205;SDS011;3136;48.788;9.772;2023-07-13T05:03:04;3.30;;;1.87;;
6205;SDS011;3136;48.788;9.772;2023-07-13T05:05:30;4.80;;;2.07;;
6205;SDS011;3136;48.788;9.772;2023-07-13T05:07:56;5.97;;;2.20;;
6205;SDS011;3136;48.788;9.772;2023-07-13T05:10:21;3.13;;;1.80;;
6205;SDS011;3136;48.788;9.772;2023-07-13T05:12:47;2.00;;;1.80;;
6205;SDS011;3136;48.788;9.772;2023-07-13T05:15:13;3.50;;;1.90;;
6205;SDS011;3136;48.788;9.772;2023-07-13T05:17:39;3.20;;;1.80;;
6205;SDS011;3136;48.788;9.772;2023-07-13T05:20:05;3.10;;;1.90;;
6205;SDS011;3136;48.788;9.772;2023-07-13T05:22:32;4.00;;;2.20;;
6205;SDS011;3136;48.788;9.772;2023-07-13T05:24:59;3.97;;;2.00;;
6205;SDS011;3136;48.788;9.772;2023-07-13T05:27:26;3.07;;;1.90;;
6205;SDS011;3136;48.788;9.772;2023-07-13T05:29:51;4.90;;;1.90;;
6205;SDS011;3136;48.788;9.772;2023-07-13T05:32:17;4.23;;;2.30;;
6205;SDS011;3136;48.788;9.772;2023-07-13T05:34:43;4.80;;;1.90;;
6205;SDS011;3136;48.788;9.772;2023-07-13T05:37:09;2.60;;;1.80;;
6205;SDS011;3136;48.788;9.772;2023-07-13T05:39:35;4.63;;;1.77;;
6205;SDS011;3136;48.788;9.772;2023-07-13T05:42:01;3.03;;;2.00;;
6205;SDS011;3136;48.788;9.772;2023-07-13T05:44:27;3.57;;;1.60;;
6205;SDS011;3136;48.788;9.772;2023-07-13T05:46:53;2.50;;;1.50;;
6205;SDS011;3136;48.788;9.772;2023-07-13T05:49:19;4.63;;;1.90;;
6205;SDS011;3136;48.788;9.772;2023-07-13T05:51:45;3.67;;;1.63;;
6205;SDS011;3136;48.788;9.772;2023-07-13T05:54:11;5.03;;;2.17;;
6205;SDS011;3136;48.788;9.772;2023-07-13T05:56:36;5.03;;;1.80;;
6205;SDS011;3136;48.788;9.772;2023-07-13T05:59:02;8.60;;;2.13;;
6205;SDS011;3136;48.788;9.772;2023-07-13T06:01:29;2.97;;;1.57;;
6205;SDS011;3136;48.788;9.772;2023-07-13T06:03:55;6.00;;;1.80;;
6205;SDS011;3136;48.788;9.772;2023-07-13T06:06:21;5.43;;;1.70;;
6205;SDS011;3136;48.788;9.772;2023-07-13T06:08:47;4.37;;;1.77;;
6205;SDS011;3136;48.788;9.772;2023-07-13T06:11:20;3.37;;;1.73;;
6205;SDS011;3136;48.788;9.772;2023-07-13T06:13:47;4.50;;;1.50;;
6205;SDS011;3136;48.788;9.772;2023-07-13T06:16:14;2.03;;;1.40;;
6205;SDS011;3136;48.788;9.772;2023-07-13T06:18:40;5.93;;;2.00;;
6205;SDS011;3136;48.788;9.772;2023-07-13T06:21:06;2.97;;;1.80;;
6205;SDS011;3136;48.788;9.772;2023-07-13T06:23:37;2.57;;;1.80;;
6205;SDS011;3136;48.788;9.772;2023-07-13T06:26:03;3.50;;;1.97;;
6205;SDS011;3136;48.788;9.772;2023-07-13T06:28:30;3.57;;;1.60;;
6205;SDS011;3136;48.788;9.772;2023-07-13T06:30:56;2.57;;;1.60;;
6205;SDS011;3136;48.788;9.772;2023-07-13T06:33:23;5.90;;;1.93;;
6205;SDS011;3136;48.788;9.772;2023-07-13T06:35:48;3.77;;;1.63;;
6205;SDS011;3136;48.788;9.772;2023-07-13T06:38:14;4.87;;;2.23;;
6205;SDS011;3136;48.788;9.772;2023-07-13T06:40:39;3.50;;;1.67;;
6205;SDS011;3136;48.788;9.772;2023-07-13T06:43:06;3.63;;;1.50;;
6205;SDS011;3136;48.788;9.772;2023-07-13T06:45:32;3.27;;;1.60;;
6205;SDS011;3136;48.788;9.772;2023-07-13T06:48:06;2.60;;;1.50;;
6205;SDS011;3136;48.788;9.772;2023-07-13T06:50:33;5.90;;;1.67;;
6205;SDS011;3136;48.788;9.772;2023-07-13T06:52:59;3.93;;;1.63;;
6205;SDS011;3136;48.788;9.772;2023-07-13T06:55:25;4.03;;;1.70;;
6205;SDS011;3136;48.788;9.772;2023-07-13T06:57:51;9.13;;;2.00;;
6205;SDS011;3136;48.788;9.772;2023-07-13T07:00:16;7.30;;;1.57;;
6205;SDS011;3136;48.788;9.772;2023-07-13T07:02:42;4.10;;;1.60;;
6205;SDS011;3136;48.788;9.772;2023-07-13T07:05:08;3.57;;;1.73;;
6205;SDS011;3136;48.788;9.772;2023-07-13T07:07:33;4.57;;;1.60;;
6205;SDS011;3136;48.788;9.772;2023-07-13T07:09:59;5.33;;;1.63;;
6205;SDS011;3136;48.788;9.772;2023-07-13T07:12:25;3.63;;;1.50;;
6205;SDS011;3136;48.788;9.772;2023-07-13T07:14:50;8.03;;;1.60;;
6205;SDS011;3136;48.788;9.772;2023-07-13T07:17:16;4.27;;;1.70;;
6205;SDS011;3136;48.788;9.772;2023-07-13T07:19:41;3.97;;;1.73;;
6205;SDS011;3136;48.788;9.772;2023-07-13T07:22:07;2.57;;;1.50;;
6205;SDS011;3136;48.788;9.772;2023-07-13T07:24:32;5.13;;;1.80;;
6205;SDS011;3136;48.788;9.772;2023-07-13T07:26:58;4.57;;;1.60;;
6205;SDS011;3136;48.788;9.772;2023-07-13T07:29:24;2.80;;;1.70;;
6205;SDS011;3136;48.788;9.772;2023-07-13T07:31:51;4.77;;;1.83;;
6205;SDS011;3136;48.788;9.772;2023-07-13T07:34:17;4.43;;;1.83;;
6205;SDS011;3136;48.788;9.772;2023-07-13T07:36:42;4.13;;;1.83;;
6205;SDS011;3136;48.788;9.772;2023-07-13T07:39:08;4.47;;;1.80;;
6205;SDS011;3136;48.788;9.772;2023-07-13T07:41:33;5.03;;;1.50;;
6205;SDS011;3136;48.788;9.772;2023-07-13T07:43:59;4.37;;;1.40;;
6205;SDS011;3136;48.788;9.772;2023-07-13T07:46:24;3.53;;;1.70;;
6205;SDS011;3136;48.788;9.772;2023-07-13T07:48:50;4.30;;;1.60;;
6205;SDS011;3136;48.788;9.772;2023-07-13T07:51:16;3.83;;;1.20;;
6205;SDS011;3136;48.788;9.772;2023-07-13T07:53:41;2.63;;;1.20;;
6205;SDS011;3136;48.788;9.772;2023-07-13T07:56:07;19.03;;;1.70;;
6205;SDS011;3136;48.788;9.772;2023-07-13T07:58:35;4.77;;;0.90;;
6205;SDS011;3136;48.788;9.772;2023-07-13T08:01:04;4.97;;;1.13;;
6205;SDS011;3136;48.788;9.772;2023-07-13T08:03:30;3.67;;;1.13;;
6205;SDS011;3136;48.788;9.772;2023-07-13T08:05:56;2.40;;;1.10;;
6205;SDS011;3136;48.788;9.772;2023-07-13T08:08:21;3.70;;;1.37;;
6205;SDS011;3136;48.788;9.772;2023-07-13T08:10:47;3.50;;;1.27;;
6205;SDS011;3136;48.788;9.772;2023-07-13T08:13:12;2.57;;;1.27;;
6205;SDS011;3136;48.788;9.772;2023-07-13T08:15:38;9.57;;;1.27;;
6205;SDS011;3136;48.788;9.772;2023-07-13T08:18:05;4.40;;;1.50;;
6205;SDS011;3136;48.788;9.772;2023-07-13T08:20:31;4.33;;;1.50;;
6205;SDS011;3136;48.788;9.772;2023-07-13T08:22:56;3.63;;;1.30;;
6205;SDS011;3136;48.788;9.772;2023-07-13T08:25:22;3.13;;;1.33;;
6205;SDS011;3136;48.788;9.772;2023-07-13T08:27:48;4.83;;;1.30;;
6205;SDS011;3136;48.788;9.772;2023-07-13T08:30:13;4.13;;;1.40;;
6205;SDS011;3136;48.788;9.772;2023-07-13T08:32:39;2.87;;;1.20;;
6205;SDS011;3136;48.788;9.772;2023-07-13T08:35:05;3.73;;;1.43;;
6205;SDS011;3136;48.788;9.772;2023-07-13T08:37:30;3.17;;;1.40;;
6205;SDS011;3136;48.788;9.772;2023-07-13T08:39:56;3.50;;;1.37;;
6205;SDS011;3136;48.788;9.772;2023-07-13T08:47:26;2.47;;;1.33;;
6205;SDS011;3136;48.788;9.772;2023-07-13T08:49:55;3.03;;;1.50;;
6205;SDS011;3136;48.788;9.772;2023-07-13T08:52:36;4.77;;;1.77;;
6205;SDS011;3136;48.788;9.772;2023-07-13T08:55:08;1.77;;;1.00;;
6205;SDS011;3136;48.788;9.772;2023-07-13T08:57:41;5.90;;;1.57;;
6205;SDS011;3136;48.788;9.772;2023-07-13T09:00:09;4.50;;;1.60;;
6205;SDS011;3136;48.788;9.772;2023-07-13T09:05:18;3.77;;;1.57;;
6205;SDS011;3136;48.788;9.772;2023-07-13T09:11:00;4.27;;;1.37;;
6205;SDS011;3136;48.788;9.772;2023-07-13T09:14:06;4.03;;;1.40;;
6205;SDS011;3136;48.788;9.772;2023-07-13T09:16:51;2.70;;;1.43;;
6205;SDS011;3136;48.788;9.772;2023-07-13T09:19:21;2.63;;;1.27;;
6205;SDS011;3136;48.788;9.772;2023-07-13T09:21:52;2.73;;;1.40;;
6205;SDS011;3136;48.788;9.772;2023-07-13T09:27:14;2.83;;;1.40;;
6205;SDS011;3136;48.788;9.772;2023-07-13T09:29:48;5.50;;;1.50;;
6205;SDS011;3136;48.788;9.772;2023-07-13T09:32:28;3.77;;;1.30;;
6205;SDS011;3136;48.788;9.772;2023-07-13T09:34:55;4.57;;;1.13;;
6205;SDS011;3136;48.788;9.772;2023-07-13T09:37:22;6.20;;;1.67;;
6205;SDS011;3136;48.788;9.772;2023-07-13T09:39:53;4.33;;;1.20;;
6205;SDS011;3136;48.788;9.772;2023-07-13T09:42:21;4.97;;;1.40;;
6205;SDS011;3136;48.788;9.772;2023-07-13T09:47:25;2.47;;;1.30;;
6205;SDS011;3136;48.788;9.772;2023-07-13T09:49:55;2.03;;;1.30;;
6205;SDS011;3136;48.788;9.772;2023-07-13T09:52:23;4.40;;;1.30;;
6205;SDS011;3136;48.788;9.772;2023-07-13T09:54:50;4.17;;;1.40;;
6205;SDS011;3136;48.788;9.772;2023-07-13T09:57:22;4.20;;;1.27;;
6205;SDS011;3136;48.788;9.772;2023-07-13T09:59:49;1.97;;;0.93;;
6205;SDS011;3136;48.788;9.772;2023-07-13T10:02:24;4.37;;;1.20;;
6205;SDS011;3136;48.788;9.772;2023-07-13T10:07:30;1.83;;;1.30;;
6205;SDS011;3136;48.788;9.772;2023-07-13T10:09:58;5.30;;;1.50;;
6205;SDS011;3136;48.788;9.772;2023-07-13T10:12:29;15.47;;;2.07;;
6205;SDS011;3136;48.788;9.772;2023-07-13T10:15:00;4.17;;;1.30;;
6205;SDS011;3136;48.788;9.772;2023-07-13T10:17:28;3.60;;;1.20;;
6205;SDS011;3136;48.788;9.772;2023-07-13T10:19:57;4.03;;;1.40;;
6205;SDS011;3136;48.788;9.772;2023-07-13T10:22:31;2.23;;;1.23;;
6205;SDS011;3136;48.788;9.772;2023-07-13T10:25:19;3.77;;;1.40;;
6205;SDS011;3136;48.788;9.772;2023-07-13T10:27:47;1.93;;;1.10;;
6205;SDS011;3136;48.788;9.772;2023-07-13T10:32:45;2.30;;;1.20;;
6205;SDS011;3136;48.788;9.772;2023-07-13T10:35:14;2.37;;;1.20;;
6205;SDS011;3136;48.788;9.772;2023-07-13T10:37:44;3.50;;;1.40;;
6205;SDS011;3136;48.788;9.772;2023-07-13T10:40:29;2.87;;;1.10;;
6205;SDS011;3136;48.788;9.772;2023-07-13T10:42:59;3.87;;;1.30;;
6205;SDS011;3136;48.788;9.772;2023-07-13T10:45:30;4.93;;;1.30;;
6205;SDS011;3136;48.788;9.772;2023-07-13T10:47:59;2.40;;;1.40;;
6205;SDS011;3136;48.788;9.772;2023-07-13T10:50:26;3.20;;;1.20;;
6205;SDS011;3136;48.788;9.772;2023-07-13T10:52:55;2.43;;;1.10;;
6205;SDS011;3136;48.788;9.772;2023-07-13T11:03:31;4.33;;;1.10;;
6205;SDS011;3136;48.788;9.772;2023-07-13T11:18:50;2.87;;;1.53;;
6205;SDS011;3136;48.788;9.772;2023-07-13T11:21:18;2.47;;;1.50;;
6205;SDS011;3136;48.788;9.772;2023-07-13T11:23:53;4.63;;;1.50;;
6205;SDS011;3136;48.788;9.772;2023-07-13T11:26:39;3.40;;;1.20;;
6205;SDS011;3136;48.788;9.772;2023-07-13T11:29:09;3.83;;;1.63;;
6205;SDS011;3136;48.788;9.772;2023-07-13T11:31:54;4.07;;;1.30;;
6205;SDS011;3136;48.788;9.772;2023-07-13T11:34:33;3.50;;;1.40;;
6205;SDS011;3136;48.788;9.772;2023-07-13T11:37:02;5.47;;;1.33;;
6205;SDS011;3136;48.788;9.772;2023-07-13T11:39:29;3.47;;;1.30;;
6205;SDS011;3136;48.788;9.772;2023-07-13T11:42:05;4.37;;;1.47;;
6205;SDS011;3136;48.788;9.772;2023-07-13T11:44:41;3.80;;;1.17;;
6205;SDS011;3136;48.788;9.772;2023-07-13T11:47:09;3.03;;;1.40;;
6205;SDS011;3136;48.788;9.772;2023-07-13T11:49:49;4.05;;;1.33;;
6205;SDS011;3136;48.788;9.772;2023-07-13T11:52:19;6.60;;;1.50;;
6205;SDS011;3136;48.788;9.772;2023-07-13T11:54:48;2.73;;;1.13;;
6205;SDS011;3136;48.788;9.772;2023-07-13T11:57:30;4.03;;;1.42;;
6205;SDS011;3136;48.788;9.772;2023-07-13T11:59:59;4.28;;;1.60;;
6205;SDS011;3136;48.788;9.772;2023-07-13T12:04:57;2.40;;;1.25;;
6205;SDS011;3136;48.788;9.772;2023-07-13T12:07:24;3.50;;;1.40;;
6205;SDS011;3136;48.788;9.772;2023-07-13T12:09:59;3.28;;;1.50;;
6205;SDS011;3136;48.788;9.772;2023-07-13T12:12:36;4.70;;;1.52;;
6205;SDS011;3136;48.788;9.772;2023-07-13T12:15:05;4.13;;;1.65;;
6205;SDS011;3136;48.788;9.772;2023-07-13T12:17:32;2.40;;;1.20;;
6205;SDS011;3136;48.788;9.772;2023-07-13T12:19:59;2.88;;;1.13;;
6205;SDS011;3136;48.788;9.772;2023-07-13T12:22:25;3.30;;;1.27;;
6205;SDS011;3136;48.788;9.772;2023-07-13T12:24:52;3.10;;;1.48;;
6205;SDS011;3136;48.788;9.772;2023-07-13T12:27:23;2.88;;;1.30;;
6205;SDS011;3136;48.788;9.772;2023-07-13T12:29:57;2.85;;;1.42;;
6205;SDS011;3136;48.788;9.772;2023-07-13T12:32:25;3.15;;;1.50;;
6205;SDS011;3136;48.788;9.772;2023-07-13T12:34:56;2.97;;;1.25;;
6205;SDS011;3136;48.788;9.772;2023-07-13T12:37:38;2.80;;;1.42;;
6205;SDS011;3136;48.788;9.772;2023-07-13T12:40:12;4.43;;;1.33;;
6205;SDS011;3136;48.788;9.772;2023-07-13T12:42:43;3.10;;;1.35;;
6205;SDS011;3136;48.788;9.772;2023-07-13T12:45:23;2.97;;;1.20;;
6205;SDS011;3136;48.788;9.772;2023-07-13T12:47:53;3.90;;;1.52;;
6205;SDS011;3136;48.788;9.772;2023-07-13T12:50:21;2.53;;;1.23;;
6205;SDS011;3136;48.788;9.772;2023-07-13T12:52:52;3.95;;;1.70;;
6205;SDS011;3136;48.788;9.772;2023-07-13T12:55:20;2.33;;;1.27;;
6205;SDS011;3136;48.788;9.772;2023-07-13T12:57:49;2.53;;;1.33;;
6205;SDS011;3136;48.788;9.772;2023-07-13T13:00:24;3.22;;;1.50;;
6205;SDS011;3136;48.788;9.772;2023-07-13T13:02:55;3.22;;;1.42;;
6205;SDS011;3136;48.788;9.772;2023-07-13T13:05:22;5.60;;;1.50;;
6205;SDS011;3136;48.788;9.772;2023-07-13T13:07:51;4.95;;;1.35;;
6205;SDS011;3136;48.788;9.772;2023-07-13T13:10:17;3.83;;;1.70;;
6205;SDS011;3136;48.788;9.772;2023-07-13T13:12:43;3.13;;;1.40;;
6205;SDS011;3136;48.788;9.772;2023-07-13T13:15:09;2.85;;;1.33;;
6205;SDS011;3136;48.788;9.772;2023-07-13T13:17:36;6.88;;;1.48;;
6205;SDS011;3136;48.788;9.772;2023-07-13T13:20:11;3.17;;;1.58;;
6205;SDS011;3136;48.788;9.772;2023-07-13T13:22:44;5.43;;;1.48;;
6205;SDS011;3136;48.788;9.772;2023-07-13T13:25:10;4.10;;;1.47;;
6205;SDS011;3136;48.788;9.772;2023-07-13T13:27:36;2.70;;;1.40;;
6205;SDS011;3136;48.788;9.772;2023-07-13T13:30:08;5.20;;;1.50;;
6205;SDS011;3136;48.788;9.772;2023-07-13T13:32:37;2.87;;;1.50;;
6205;SDS011;3136;48.788;9.772;2023-07-13T13:35:04;2.17;;;1.10;;
6205;SDS011;3136;48.788;9.772;2023-07-13T13:37:31;2.37;;;1.30;;
6205;SDS011;3136;48.788;9.772;2023-07-13T13:39:57;4.87;;;2.00;;
6205;SDS011;3136;48.788;9.772;2023-07-13T13:42:22;2.83;;;1.50;;
6205;SDS011;3136;48.788;9.772;2023-07-13T13:44:51;3.33;;;1.50;;
6205;SDS011;3136;48.788;9.772;2023-07-13T13:47:49;3.60;;;1.30;;
6205;SDS011;3136;48.788;9.772;2023-07-13T13:50:11;5.40;;;1.40;;
6205;SDS011;3136;48.788;9.772;2023-07-13T13:52:39;3.30;;;1.50;;
6205;SDS011;3136;48.788;9.772;2023-07-13T13:55:12;2.80;;;1.37;;
6205;SDS011;3136;48.788;9.772;2023-07-13T13:57:44;3.17;;;1.30;;
6205;SDS011;3136;48.788;9.772;2023-07-13T14:00:11;4.43;;;1.30;;
6205;SDS011;3136;48.788;9.772;2023-07-13T14:02:39;3.23;;;1.50;;
6205;SDS011;3136;48.788;9.772;2023-07-13T14:05:13;4.50;;;1.30;;
6205;SDS011;3136;48.788;9.772;2023-07-13T14:07:40;3.43;;;1.60;;
6205;SDS011;3136;48.788;9.772;2023-07-13T14:10:11;3.43;;;1.20;;
6205;SDS011;3136;48.788;9.772;2023-07-13T14:12:40;3.33;;;1.40;;
6205;SDS011;3136;48.788;9.772;2023-07-13T14:15:12;4.87;;;1.40;;
6205;SDS011;3136;48.788;9.772;2023-07-13T14:17:45;3.63;;;1.40;;
6205;SDS011;3136;48.788;9.772;2023-07-13T14:20:11;2.73;;;1.40;;
6205;SDS011;3136;48.788;9.772;2023-07-13T14:22:41;3.77;;;1.60;;
6205;SDS011;3136;48.788;9.772;2023-07-13T14:25:13;3.50;;;1.50;;
6205;SDS011;3136;48.788;9.772;2023-07-13T14:27:40;3.43;;;1.60;;
6205;SDS011;3136;48.788;9.772;2023-07-13T14:32:40;2.20;;;1.33;;
6205;SDS011;3136;48.788;9.772;2023-07-13T14:35:06;2.37;;;1.40;;
6205;SDS011;3136;48.788;9.772;2023-07-13T14:37:37;5.40;;;1.37;;
6205;SDS011;3136;48.788;9.772;2023-07-13T14:40:11;8.83;;;1.60;;
6205;SDS011;3136;48.788;9.772;2023-07-13T14:42:41;3.60;;;1.20;;
6205;SDS011;3136;48.788;9.772;2023-07-13T14:45:12;3.60;;;1.40;;
6205;SDS011;3136;48.788;9.772;2023-07-13T14:47:38;4.83;;;1.60;;
6205;SDS011;3136;48.788;9.772;2023-07-13T14:50:04;5.20;;;1.63;;
6205;SDS011;3136;48.788;9.772;2023-07-13T14:52:30;1.80;;;1.20;;
6205;SDS011;3136;48.788;9.772;2023-07-13T14:54:55;2.97;;;1.27;;
6205;SDS011;3136;48.788;9.772;2023-07-13T14:57:21;2.53;;;1.30;;
6205;SDS011;3136;48.788;9.772;2023-07-13T14:59:47;4.77;;;1.43;;
6205;SDS011;3136;48.788;9.772;2023-07-13T15:04:56;2.83;;;1.40;;
6205;SDS011;3136;48.788;9.772;2023-07-13T15:07:22;4.97;;;1.50;;
6205;SDS011;3136;48.788;9.772;2023-07-13T15:09:48;3.27;;;1.50;;
6205;SDS011;3136;48.788;9.772;2023-07-13T15:12:15;2.27;;;1.33;;
6205;SDS011;3136;48.788;9.772;2023-07-13T15:14:41;4.03;;;1.47;;
6205;SDS011;3136;48.788;9.772;2023-07-13T15:19:56;3.57;;;1.40;;
6205;SDS011;3136;48.788;9.772;2023-07-13T15:22:21;3.43;;;1.40;;
6205;SDS011;3136;48.788;9.772;2023-07-13T15:24:47;3.57;;;1.80;;
6205;SDS011;3136;48.788;9.772;2023-07-13T15:27:12;2.47;;;1.33;;
6205;SDS011;3136;48.788;9.772;2023-07-13T15:29:38;2.73;;;1.27;;
6205;SDS011;3136;48.788;9.772;2023-07-13T15:32:09;3.97;;;1.23;;
6205;SDS011;3136;48.788;9.772;2023-07-13T15:34:38;1.97;;;1.30;;
6205;SDS011;3136;48.788;9.772;2023-07-13T15:37:04;4.80;;;1.30;;
6205;SDS011;3136;48.788;9.772;2023-07-13T15:39:36;2.40;;;1.50;;
6205;SDS011;3136;48.788;9.772;2023-07-13T15:42:02;4.13;;;1.37;;
6205;SDS011;3136;48.788;9.772;2023-07-13T15:44:29;5.37;;;1.40;;
6205;SDS011;3136;48.788;9.772;2023-07-13T15:46:56;2.77;;;1.43;;
6205;SDS011;3136;48.788;9.772;2023-07-13T15:49:25;3.47;;;1.30;;
6205;SDS011;3136;48.788;9.772;2023-07-13T15:51:50;2.00;;;1.30;;
6205;SDS011;3136;48.788;9.772;2023-07-13T15:54:17;2.10;;;1.43;;
6205;SDS011;3136;48.788;9.772;2023-07-13T15:56:44;1.73;;;1.27;;
6205;SDS011;3136;48.788;9.772;2023-07-13T15:59:14;3.90;;;1.60;;
6205;SDS011;3136;48.788;9.772;2023-07-13T16:01:40;3.03;;;1.33;;
6205;SDS011;3136;48.788;9.772;2023-07-13T16:04:07;4.23;;;1.50;;
6205;SDS011;3136;48.788;9.772;2023-07-13T16:06:34;3.00;;;1.30;;
6205;SDS011;3136;48.788;9.772;2023-07-13T16:09:01;3.37;;;1.37;;
6205;SDS011;3136;48.788;9.772;2023-07-13T16:11:36;2.83;;;1.33;;
6205;SDS011;3136;48.788;9.772;2023-07-13T16:14:03;3.07;;;1.23;;